Time;durP1;ratioP1;P1;durP2;ratioP2;P2;SDS_P1;SDS_P2;PMS_P1;PMS_P2;Temp;Humidity;BMP_temperature;BMP_pressure;BME280_temperature;BME280_humidity;BME280_pressure;Samples;Min_cycle;Max_cycle;Signal;HPM_P1;HPM_P2
2023/03/26 00:00:15;;;;;;;0.82;0.20;;;;;;;8.43;58.11;96879.91;10109818;29;20085;-77
2023/03/26 00:06:07;;;;;;;2.45;0.52;;;;;;;8.41;57.74;96880.50;10115943;29;20082;-77
2023/03/26 00:12:00;;;;;;;2.97;0.45;;;;;;;8.40;57.79;96881.84;10100395;29;20068;-77
2023/03/26 00:17:49;;;;;;;2.92;0.40;;;;;;;8.31;58.12;96877.81;10127610;29;20487;-77
2023/03/26 00:23:12;;;;;;;2.88;0.40;;;;;;;8.25;58.29;96888.53;10098054;29;20486;-77
2023/03/26 00:28:34;;;;;;;1.35;0.30;;;;;;;8.24;58.37;96880.81;10111604;29;20045;-78
2023/03/26 00:34:26;;;;;;;3.22;0.30;;;;;;;8.22;58.19;96878.63;10108269;29;20052;-78
2023/03/26 00:40:03;;;;;;;1.65;0.47;;;;;;;8.19;58.62;96879.81;10110753;29;20105;-77
2023/03/26 00:47:20;;;;;;;3.55;0.50;;;;;;;8.22;58.88;96877.91;10133306;29;20052;-78
2023/03/26 00:52:45;;;;;;;2.08;0.30;;;;;;;8.23;59.02;96874.50;10106659;29;20142;-78
2023/03/26 00:58:13;;;;;;;6.38;0.47;;;;;;;8.19;58.91;96867.97;10093543;29;20084;-78
2023/03/26 01:03:42;;;;;;;2.13;0.38;;;;;;;8.19;58.97;96879.06;10120430;29;20089;-78
2023/03/26 01:10:37;;;;;;;2.60;0.20;;;;;;;8.22;59.33;96877.91;10050200;29;20073;-77
2023/03/26 01:16:36;;;;;;;1.85;0.30;;;;;;;8.15;59.47;96896.25;10012397;29;20054;-78
2023/03/26 01:22:00;;;;;;;2.13;0.30;;;;;;;8.10;59.52;96886.19;10025260;29;20061;-78
2023/03/26 01:27:59;;;;;;;2.55;0.20;;;;;;;8.03;59.95;96893.44;10086318;29;20048;-78
2023/03/26 01:42:07;;;;;;;2.30;0.60;;;;;;;7.81;60.55;96885.69;10104448;29;20045;-78
2023/03/26 01:47:38;;;;;;;3.65;0.30;;;;;;;7.74;60.56;96882.56;10079494;29;20079;-78
2023/03/26 01:54:00;;;;;;;2.08;0.22;;;;;;;7.69;61.10;96885.66;10085629;29;20472;-78
2023/03/26 02:00:10;;;;;;;1.90;0.30;;;;;;;7.62;61.71;96890.09;10104683;29;20068;-78
2023/03/26 02:13:44;;;;;;;2.22;0.13;;;;;;;7.61;61.50;96891.41;10129828;29;20487;-77
2023/03/26 02:19:20;;;;;;;3.75;0.60;;;;;;;7.68;61.66;96900.88;10116009;29;20048;-78
2023/03/26 02:24:42;;;;;;;2.13;0.40;;;;;;;7.79;61.34;96877.25;10117189;29;20063;-78
2023/03/26 02:31:03;;;;;;;2.63;0.20;;;;;;;7.95;61.38;96901.25;10131779;29;20060;-78
2023/03/26 02:36:26;;;;;;;1.90;0.20;;;;;;;7.90;61.41;96896.75;10115184;29;20104;-78
2023/03/26 02:41:50;;;;;;;4.30;0.40;;;;;;;7.86;61.64;96893.00;10117503;29;20097;-78
2023/03/26 02:47:12;;;;;;;2.47;0.20;;;;;;;8.01;61.69;96893.31;10101772;29;20048;-78
2023/03/26 02:53:36;;;;;;;1.42;0.20;;;;;;;8.14;61.69;96885.72;10130005;29;20084;-78
2023/03/26 02:59:29;;;;;;;2.65;0.30;;;;;;;8.17;61.25;96885.25;10118244;29;20056;-78
2023/03/26 03:06:01;;;;;;;2.70;0.30;;;;;;;8.21;61.62;96887.56;10061211;29;20057;-77
2023/03/26 03:11:55;;;;;;;3.38;0.60;;;;;;;8.24;61.47;96875.97;10049439;29;20053;-78
2023/03/26 03:17:54;;;;;;;2.55;0.30;;;;;;;8.29;61.78;96872.09;10051821;29;20377;-78
2023/03/26 03:23:47;;;;;;;3.05;0.50;;;;;;;8.33;61.66;96866.06;10057639;29;20124;-78
2023/03/26 03:30:44;;;;;;;2.92;0.40;;;;;;;8.33;61.55;96864.03;10055319;29;20113;-78
2023/03/26 03:37:09;;;;;;;2.67;0.40;;;;;;;8.04;61.67;96860.81;10058719;29;20061;-77
2023/03/26 03:42:45;;;;;;;3.33;0.40;;;;;;;7.86;62.27;96865.19;10033310;29;20510;-77
2023/03/26 03:49:15;;;;;;;3.92;0.40;;;;;;;7.95;62.63;96869.94;10054202;29;20066;-77
2023/03/26 03:55:06;;;;;;;3.33;0.57;;;;;;;8.07;62.28;96879.06;10048972;29;20480;-78
2023/03/26 04:01:31;;;;;;;2.92;0.35;;;;;;;8.00;62.11;96877.19;10058791;29;20071;-78
2023/03/26 04:07:35;;;;;;;2.85;0.32;;;;;;;7.98;62.43;96882.63;9987363;29;20061;-78
2023/03/26 04:13:28;;;;;;;2.33;0.30;;;;;;;8.09;61.81;96879.16;10001930;29;20058;-78
2023/03/26 04:19:57;;;;;;;1.75;0.32;;;;;;;8.20;61.98;96875.72;9882799;29;20095;-78
2023/03/26 04:25:29;;;;;;;2.50;0.22;;;;;;;8.22;61.87;96872.34;10018237;29;20062;-77
2023/03/26 04:33:30;;;;;;;3.05;0.30;;;;;;;8.09;61.81;96868.06;10046980;29;20053;-77
2023/03/26 04:38:52;;;;;;;5.55;0.40;;;;;;;7.99;62.06;96850.75;10057646;29;20129;-77
2023/03/26 04:44:21;;;;;;;1.13;0.20;;;;;;;8.07;62.05;96845.69;10031607;29;20102;-78
2023/03/26 04:50:44;;;;;;;2.88;0.65;;;;;;;8.13;61.64;96845.34;10012538;29;20062;-78
2023/03/26 04:56:42;;;;;;;1.85;0.38;;;;;;;8.14;62.12;96844.03;10067345;29;20053;-78
2023/03/26 05:02:58;;;;;;;3.88;0.40;;;;;;;8.23;62.19;96859.88;10063838;29;20129;-78
2023/03/26 05:08:55;;;;;;;2.72;0.50;;;;;;;8.29;62.06;96860.25;10063150;29;20583;-78
2023/03/26 05:14:37;;;;;;;4.03;0.40;;;;;;;8.31;62.03;96875.03;10073210;29;20080;-78
2023/03/26 05:20:19;;;;;;;2.25;0.30;;;;;;;8.36;61.79;96858.59;9997578;29;20117;-78
2023/03/26 05:25:40;;;;;;;4.50;0.40;;;;;;;8.42;61.72;96856.94;10016953;29;20105;-78
2023/03/26 05:31:08;;;;;;;3.85;0.60;;;;;;;8.36;61.49;96862.09;10026081;29;20495;-79
2023/03/26 05:36:36;;;;;;;3.53;0.50;;;;;;;8.39;61.84;96863.69;10025624;29;20408;-78
2023/03/26 05:42:22;;;;;;;3.67;0.90;;;;;;;8.36;61.65;96867.66;10025800;29;20072;-77
2023/03/26 05:47:58;;;;;;;3.70;1.02;;;;;;;8.32;61.96;96856.28;10026009;29;20056;-77
2023/03/26 05:53:20;;;;;;;3.67;0.50;;;;;;;8.37;62.10;96860.78;10004495;29;20460;-78
2023/03/26 05:59:21;;;;;;;5.65;0.63;;;;;;;8.60;61.84;96849.69;9891908;29;20467;-78
2023/03/26 06:05:52;;;;;;;2.67;0.47;;;;;;;8.82;61.01;96833.63;9911653;30;20168;-78
2023/03/26 06:12:15;;;;;;;3.40;0.40;;;;;;;9.06;60.79;96847.50;9911749;29;20056;-78
2023/03/26 06:18:39;;;;;;;4.35;0.40;;;;;;;9.29;59.92;96841.19;9939392;29;20054;-78
2023/03/26 06:25:10;;;;;;;2.55;0.20;;;;;;;9.58;59.35;96851.91;9843539;30;20060;-78
2023/03/26 06:32:03;;;;;;;4.90;0.60;;;;;;;9.82;59.21;96850.47;9874690;30;20079;-77
2023/03/26 06:37:47;;;;;;;3.63;0.50;;;;;;;10.08;58.43;96848.44;9864971;30;20055;-77
2023/03/26 06:44:13;;;;;;;4.90;0.40;;;;;;;10.10;58.11;96853.38;10025630;29;20522;-77
2023/03/26 06:51:11;;;;;;;2.65;0.45;;;;;;;10.40;57.00;96851.53;9989261;29;20058;-78
2023/03/26 06:57:04;;;;;;;1.83;0.40;;;;;;;10.44;57.46;96855.28;9991546;29;20190;-77
2023/03/26 07:03:28;;;;;;;4.40;0.55;;;;;;;10.31;56.16;96850.38;9979250;29;20501;-78
2023/03/26 07:09:18;;;;;;;6.13;0.60;;;;;;;10.22;56.70;96852.00;9987456;29;20074;-77
2023/03/26 07:15:39;;;;;;;4.22;0.63;;;;;;;10.38;56.25;96852.16;9980073;29;20133;-78
2023/03/26 07:30:55;;;;;;;;;;;;;;;9.98;56.13;96850.66;9987520;29;20513;-78
2023/03/26 07:37:51;;;;;;;3.28;0.57;;;;;;;9.98;56.88;96833.94;9978554;29;19924;-78
2023/03/26 07:44:16;;;;;;;3.55;0.68;;;;;;;10.25;55.85;96819.38;9977421;29;20058;-78
2023/03/26 07:58:35;;;;;;;7.55;0.75;;;;;;;10.56;55.47;96816.88;10017632;29;20046;-77
2023/03/26 08:04:50;;;;;;;5.13;0.70;;;;;;;11.01;55.01;96808.00;10024878;29;20054;-77
2023/03/26 08:11:24;;;;;;;6.15;0.88;;;;;;;11.68;53.12;96814.13;9986829;29;20457;-77
2023/03/26 08:17:10;;;;;;;3.00;0.70;;;;;;;11.98;51.50;96822.53;10050346;29;20088;-77
2023/03/26 08:22:40;;;;;;;2.90;0.40;;;;;;;12.51;51.40;96805.34;10064768;29;20377;-77
2023/03/26 08:28:15;;;;;;;3.58;0.50;;;;;;;13.41;50.25;96793.13;10039641;29;20496;-78
2023/03/26 08:33:44;;;;;;;2.10;0.38;;;;;;;14.20;48.05;96784.34;10052496;29;20438;-75
2023/03/26 08:39:05;;;;;;;3.22;0.50;;;;;;;14.59;46.34;96790.06;10070453;29;20468;-75
2023/03/26 08:44:56;;;;;;;4.70;0.70;;;;;;;15.72;43.86;96774.94;10081162;29;20057;-76
2023/03/26 08:50:45;;;;;;;3.70;0.60;;;;;;;20.12;45.05;96766.22;10088134;29;20138;-75
2023/03/26 08:56:18;;;;;;;5.50;0.73;;;;;;;28.54;29.32;96763.34;10077562;29;20516;-80
2023/03/26 09:02:20;;;;;;;4.82;0.57;;;;;;;29.11;25.20;96742.13;10081613;29;20491;-78
2023/03/26 09:07:59;;;;;;;;;;;;;;;29.95;19.86;96738.03;10083200;29;20475;-78
2023/03/26 09:13:27;;;;;;;3.08;0.60;;;;;;;31.13;20.45;96734.84;10069866;29;20331;-78
2023/03/26 09:19:29;;;;;;;2.25;0.40;;;;;;;31.72;18.54;96730.13;10082216;29;20121;-80
2023/03/26 09:24:53;;;;;;;3.75;0.70;;;;;;;31.76;17.47;96735.13;10065032;29;20415;-80
2023/03/26 09:30:20;;;;;;;2.70;0.40;;;;;;;28.98;18.26;96730.19;10114320;29;20040;-78
2023/03/26 09:35:52;;;;;;;2.85;0.68;;;;;;;24.60;20.56;96723.28;10076249;29;20041;-80
2023/03/26 09:41:20;;;;;;;3.03;0.45;;;;;;;21.95;22.71;96725.66;10089194;29;20076;-78
2023/03/26 09:47:02;;;;;;;1.92;0.43;;;;;;;22.56;23.80;96711.81;10074928;29;20468;-78
2023/03/26 09:52:48;;;;;;;1.08;0.25;;;;;;;25.33;21.94;96711.53;10099314;29;20492;-77
2023/03/26 09:58:37;;;;;;;2.10;0.52;;;;;;;25.42;21.23;96702.91;10073899;29;20080;-78
2023/03/26 10:04:39;;;;;;;3.47;0.57;;;;;;;22.85;22.59;96695.56;10096840;29;20105;-78
2023/03/26 10:10:18;;;;;;;2.43;0.50;;;;;;;21.25;23.69;96692.44;10083941;29;20072;-78
2023/03/26 10:15:51;;;;;;;3.55;0.43;;;;;;;19.59;25.17;96665.59;10070726;29;20838;-77
2023/03/26 10:21:33;;;;;;;4.32;0.50;;;;;;;18.75;27.67;96657.81;10085262;29;20388;-78
2023/03/26 10:27:16;;;;;;;3.67;0.50;;;;;;;19.56;26.83;96664.16;10072226;29;20124;-78
2023/03/26 10:33:08;;;;;;;3.33;0.75;;;;;;;19.83;26.89;96651.09;10096009;29;20484;-78
2023/03/26 10:38:51;;;;;;;4.53;0.60;;;;;;;19.45;27.14;96629.28;10084735;29;20492;-78
2023/03/26 10:44:34;;;;;;;3.92;0.73;;;;;;;18.38;28.14;96620.38;10085570;29;20061;-79
2023/03/26 10:50:03;;;;;;;5.40;0.83;;;;;;;17.97;30.43;96619.56;10083004;29;20061;-80
2023/03/26 10:55:32;;;;;;;7.15;0.90;;;;;;;19.99;29.64;96620.88;10083791;29;20385;-77
2023/03/26 11:01:01;;;;;;;5.32;0.90;;;;;;;23.24;25.86;96613.09;10082447;29;20065;-78
2023/03/26 11:06:29;;;;;;;4.50;0.70;;;;;;;23.30;24.77;96615.22;10069259;29;20081;-77
2023/03/26 11:12:36;;;;;;;3.95;0.70;;;;;;;23.17;23.27;96613.81;10069690;29;20049;-78
2023/03/26 11:18:22;;;;;;;4.43;0.65;;;;;;;22.37;23.87;96607.94;10056176;29;20538;-76
2023/03/26 11:23:59;;;;;;;4.78;0.70;;;;;;;21.57;24.29;96594.78;10070419;29;20065;-77
2023/03/26 11:29:47;;;;;;;6.10;0.80;;;;;;;20.24;25.52;96598.50;10070058;29;20090;-77
2023/03/26 11:35:14;;;;;;;;;;;;;;;20.24;25.68;96598.50;10068458;29;20079;-78
2023/03/26 11:40:47;;;;;;;4.38;0.70;;;;;;;19.77;26.12;96594.38;10095671;29;20379;-77
2023/03/26 11:46:17;;;;;;;3.40;0.85;;;;;;;19.05;26.50;96579.19;10069352;29;20068;-77
2023/03/26 11:51:39;;;;;;;4.90;0.63;;;;;;;18.34;26.84;96568.75;10067731;29;20124;-76
2023/03/26 11:57:08;;;;;;;5.57;0.93;;;;;;;18.07;27.86;96567.53;10067794;29;20496;-76
2023/03/26 12:02:37;;;;;;;4.05;0.70;;;;;;;17.70;28.44;96570.31;10070516;29;20511;-78
2023/03/26 12:07:59;;;;;;;7.70;1.00;;;;;;;17.48;28.70;96563.47;10067359;29;20487;-77
2023/03/26 12:13:40;;;;;;;4.88;1.13;;;;;;;17.09;29.86;96568.94;10080448;29;20116;-78
2023/03/26 12:19:08;;;;;;;3.95;1.13;;;;;;;16.71;29.83;96565.91;10068831;29;20072;-77
2023/03/26 12:24:31;;;;;;;4.85;0.82;;;;;;;16.33;30.17;96567.72;10084443;29;20513;-78
2023/03/26 12:30:34;;;;;;;5.88;0.90;;;;;;;16.20;31.60;96561.75;10087205;29;20467;-77
2023/03/26 12:35:56;;;;;;;7.18;0.90;;;;;;;15.94;31.70;96558.25;10042480;29;20076;-77
2023/03/26 12:42:23;;;;;;;4.32;0.85;;;;;;;15.69;32.44;96557.53;10092680;29;20055;-77
2023/03/26 12:48:25;;;;;;;5.53;0.95;;;;;;;15.67;33.13;96543.44;10092373;29;20052;-77
2023/03/26 12:54:27;;;;;;;5.53;0.68;;;;;;;15.29;33.34;96545.09;10081829;29;20041;-78
2023/03/26 13:00:10;;;;;;;4.68;0.60;;;;;;;15.00;33.54;96538.59;10093260;29;20069;-77
2023/03/26 13:06:09;;;;;;;3.85;0.68;;;;;;;14.85;34.06;96533.91;10094364;29;20045;-77
2023/03/26 13:11:59;;;;;;;6.60;0.50;;;;;;;14.59;34.55;96534.50;10097805;29;20509;-77
2023/03/26 13:18:01;;;;;;;4.57;0.70;;;;;;;14.59;36.71;96540.13;10088614;29;20492;-76
2023/03/26 13:39:18;;;;;;;5.07;0.52;;;;;;;13.60;41.68;96536.66;10034648;29;20062;-77
2023/03/26 14:01:00;;;;;;;3.83;0.75;;;;;;;12.74;47.31;96525.00;10103179;29;20513;-76
2023/03/26 14:06:40;;;;;;;4.53;0.77;;;;;;;12.80;47.93;96530.09;10098725;29;20056;-77
2023/03/26 14:12:25;;;;;;;5.00;0.90;;;;;;;12.68;48.95;96518.44;10074174;29;20053;-77
2023/03/26 14:18:04;;;;;;;7.75;1.05;;;;;;;12.68;49.45;96519.16;10085833;29;20064;-76
2023/03/26 14:23:59;;;;;;;5.43;1.05;;;;;;;12.67;50.42;96503.72;10085326;29;20052;-76
2023/03/26 14:29:33;;;;;;;4.72;1.15;;;;;;;12.88;50.31;96496.81;10086126;29;20041;-77
2023/03/26 14:35:18;;;;;;;5.25;0.98;;;;;;;12.93;50.53;96492.09;10082659;29;20056;-77
2023/03/26 14:41:09;;;;;;;5.80;0.80;;;;;;;12.79;51.36;96495.06;10098862;29;20073;-76
2023/03/26 14:47:00;;;;;;;4.35;1.05;;;;;;;12.68;52.18;96496.03;10084868;29;20045;-77
2023/03/26 14:52:53;;;;;;;6.88;1.20;;;;;;;12.43;54.71;96492.25;10096645;29;20044;-76
2023/03/26 14:58:46;;;;;;;6.25;0.85;;;;;;;12.28;53.46;96479.06;10084831;29;20069;-77
2023/03/26 15:04:29;;;;;;;4.72;1.13;;;;;;;12.14;53.39;96479.19;10083500;29;20049;-77
2023/03/26 15:10:09;;;;;;;5.90;1.23;;;;;;;12.10;53.92;96475.53;10096156;29;20415;-77
2023/03/26 15:15:54;;;;;;;6.82;1.60;;;;;;;12.08;54.94;96469.84;10112325;29;20085;-77
2023/03/26 15:21:51;;;;;;;7.78;1.45;;;;;;;12.01;55.09;96457.69;10097071;29;20041;-78
2023/03/26 15:27:25;;;;;;;6.38;1.65;;;;;;;12.02;54.58;96445.88;10055410;29;20049;-77
2023/03/26 15:33:23;;;;;;;5.22;1.20;;;;;;;11.94;55.46;96447.59;10058475;29;20476;-78
2023/03/26 15:39:04;;;;;;;6.75;1.08;;;;;;;11.89;55.03;96451.59;10082091;29;20061;-76
2023/03/26 15:44:59;;;;;;;4.15;0.90;;;;;;;11.65;54.32;96440.78;10074015;29;20041;-77
2023/03/26 15:50:32;;;;;;;4.13;1.08;;;;;;;11.35;55.81;96431.84;10094030;29;20045;-77
2023/03/26 15:56:06;;;;;;;5.43;1.15;;;;;;;11.10;56.83;96427.25;10089585;29;20056;-77
2023/03/26 16:09:25;;;;;;;3.45;1.00;;;;;;;11.29;56.50;96408.50;10107255;29;20049;-77
2023/03/26 16:14:47;;;;;;;2.03;0.55;;;;;;;11.15;56.03;96412.13;10088686;29;20059;-76
2023/03/26 16:20:31;;;;;;;2.85;0.60;;;;;;;11.05;56.22;96427.72;10077707;29;20053;-76
2023/03/26 16:26:16;;;;;;;2.70;0.77;;;;;;;10.80;56.93;96418.22;10078094;29;20044;-75
2023/03/26 16:31:37;;;;;;;4.60;1.20;;;;;;;10.72;57.22;96411.59;10082560;29;20057;-77
2023/03/26 16:36:59;;;;;;;2.80;0.70;;;;;;;10.75;57.20;96407.53;10075378;29;20052;-75
2023/03/26 16:42:26;;;;;;;3.28;0.60;;;;;;;10.72;57.11;96403.94;10075090;29;20073;-75
2023/03/26 16:48:00;;;;;;;3.42;1.00;;;;;;;10.60;58.59;96403.34;10091802;29;20476;-77
2023/03/26 17:01:31;;;;;;;5.15;1.00;;;;;;;10.43;60.23;96390.03;10100234;29;20467;-76
2023/03/26 17:07:07;;;;;;;3.22;0.70;;;;;;;10.31;59.90;96396.47;10105014;29;20049;-77
2023/03/26 17:12:32;;;;;;;4.18;1.50;;;;;;;10.20;60.81;96416.81;10104822;29;20041;-75
2023/03/26 17:18:18;;;;;;;4.90;1.80;;;;;;;9.93;60.86;96414.84;10086224;29;20491;-76
2023/03/26 17:24:06;;;;;;;5.45;1.27;;;;;;;9.90;61.90;96418.88;10088405;29;20049;-76
2023/03/26 17:30:02;;;;;;;5.80;1.10;;;;;;;9.85;63.21;96400.53;10076002;29;20045;-77
2023/03/26 17:35:36;;;;;;;3.63;1.40;;;;;;;9.83;61.45;96416.41;10078394;29;20093;-76
2023/03/26 17:40:58;;;;;;;5.10;1.42;;;;;;;9.77;62.54;96408.50;10064501;29;20491;-76
2023/03/26 17:46:54;;;;;;;6.47;1.73;;;;;;;9.61;62.57;96419.53;10087716;29;20068;-76
2023/03/26 17:52:47;;;;;;;8.68;2.40;;;;;;;9.25;64.06;96421.19;10034793;29;20049;-76
2023/03/26 17:58:27;;;;;;;8.48;2.90;;;;;;;9.13;66.46;96412.94;10088326;29;20064;-76
2023/03/26 18:03:50;;;;;;;9.07;3.40;;;;;;;9.02;64.27;96413.06;10081477;29;20048;-76
2023/03/26 18:09:23;;;;;;;8.02;3.03;;;;;;;8.91;64.50;96405.53;10081556;29;20049;-76
2023/03/26 18:15:18;;;;;;;8.25;3.00;;;;;;;8.81;65.03;96406.44;10083100;29;20072;-76
2023/03/26 18:20:42;;;;;;;;;;;;;;;8.77;67.09;96422.91;10082598;29;20094;-75
2023/03/26 18:26:42;;;;;;;7.35;2.78;;;;;;;8.76;65.92;96423.50;10090298;29;19931;-77
2023/03/26 18:32:39;;;;;;;7.53;3.20;;;;;;;8.89;66.36;96423.56;10090567;29;20053;-77
2023/03/26 18:38:02;;;;;;;7.20;3.10;;;;;;;8.92;66.33;96415.31;10084683;29;20049;-77
2023/03/26 18:43:30;;;;;;;8.68;2.85;;;;;;;8.84;66.40;96410.03;10083970;29;20045;-76
2023/03/26 18:49:02;;;;;;;5.43;2.40;;;;;;;8.72;66.45;96407.34;10085755;29;20045;-77
2023/03/26 18:54:23;;;;;;;7.28;2.90;;;;;;;8.69;66.99;96394.66;10081924;29;20049;-76
2023/03/26 19:00:27;;;;;;;7.55;3.13;;;;;;;8.52;67.64;96381.22;10097434;29;20499;-76
2023/03/26 19:05:49;;;;;;;10.23;4.45;;;;;;;8.42;67.61;96377.91;10081707;29;20055;-76
2023/03/26 19:11:43;;;;;;;8.80;4.53;;;;;;;8.35;67.63;96376.84;10088552;29;20053;-77
2023/03/26 19:17:34;;;;;;;13.47;6.03;;;;;;;8.30;68.04;96362.00;10056644;29;20057;-76
2023/03/26 19:22:58;;;;;;;10.50;6.03;;;;;;;8.27;67.76;96363.19;10092716;29;20487;-77
2023/03/26 19:28:54;;;;;;;12.10;7.22;;;;;;;8.12;67.84;96368.63;10085154;29;20061;-77
2023/03/26 19:34:24;;;;;;;14.32;7.72;;;;;;;7.98;68.12;96351.88;10079243;29;20045;-77
2023/03/26 19:39:50;;;;;;;13.60;6.82;;;;;;;7.88;68.21;96345.75;10079490;29;20049;-78
2023/03/26 19:45:39;;;;;;;16.90;9.35;;;;;;;7.81;69.25;96341.19;10089416;29;20124;-76
2023/03/26 19:51:22;;;;;;;16.48;9.23;;;;;;;7.73;68.49;96336.66;10085150;29;20078;-77
2023/03/26 19:56:43;;;;;;;14.10;7.57;;;;;;;7.61;69.24;96330.41;10089526;29;20037;-76
2023/03/26 20:02:09;;;;;;;12.27;5.95;;;;;;;7.55;69.19;96327.31;10076599;29;20045;-76
2023/03/26 20:08:13;;;;;;;11.25;5.50;;;;;;;7.51;69.79;96323.56;10081491;29;20090;-77
2023/03/26 20:13:43;;;;;;;12.40;6.93;;;;;;;7.46;69.00;96319.84;10058870;29;20503;-77
2023/03/26 20:19:04;;;;;;;15.73;6.82;;;;;;;7.39;69.61;96329.88;10074895;29;20468;-77
2023/03/26 20:24:33;;;;;;;11.40;5.22;;;;;;;7.42;69.59;96334.19;10073993;29;20045;-76
2023/03/26 20:29:54;;;;;;;9.05;4.53;;;;;;;7.54;69.85;96336.25;10073052;29;20510;-77
2023/03/26 20:35:20;;;;;;;6.70;4.28;;;;;;;7.67;70.08;96339.09;10073050;29;20049;-77
2023/03/26 20:40:56;;;;;;;6.88;3.90;;;;;;;7.83;70.18;96341.31;10089302;29;20116;-77
2023/03/26 20:46:20;;;;;;;6.85;3.63;;;;;;;7.95;70.10;96323.25;10062229;29;20456;-76
2023/03/26 20:51:42;;;;;;;10.30;4.10;;;;;;;8.01;69.99;96311.78;10073698;29;20048;-76
2023/03/26 20:57:03;;;;;;;7.05;3.50;;;;;;;8.07;69.84;96300.25;10086361;29;20049;-76
2023/03/26 21:02:25;;;;;;;6.68;3.67;;;;;;;8.07;69.76;96306.53;10085513;29;20057;-76
2023/03/26 21:07:47;;;;;;;6.97;3.65;;;;;;;8.12;70.28;96315.81;10071496;29;20373;-76
2023/03/26 21:13:24;;;;;;;6.28;3.70;;;;;;;8.18;70.39;96319.63;10069055;29;20041;-76
2023/03/26 21:18:45;;;;;;;7.40;3.60;;;;;;;8.21;70.18;96320.47;10083227;29;20057;-76
2023/03/26 21:24:22;;;;;;;6.93;3.58;;;;;;;8.22;69.91;96299.69;10076229;29;20041;-76
2023/03/26 21:29:43;;;;;;;8.07;3.80;;;;;;;8.20;70.30;96314.19;10052596;29;20057;-77
2023/03/26 21:35:05;;;;;;;10.73;5.82;;;;;;;8.19;70.60;96317.56;10078660;29;20045;-76
2023/03/26 21:40:26;;;;;;;14.43;7.60;;;;;;;8.04;70.26;96311.25;10078235;29;20057;-76
2023/03/26 21:45:49;;;;;;;11.55;7.47;;;;;;;7.89;71.42;96311.09;10078184;29;20049;-76
2023/03/26 21:51:13;;;;;;;14.70;9.27;;;;;;;7.75;71.61;96295.09;10077548;29;20061;-76
2023/03/26 21:56:40;;;;;;;17.45;9.18;;;;;;;7.69;71.40;96291.97;10077973;29;20048;-77
2023/03/26 22:02:12;;;;;;;17.27;9.20;;;;;;;7.69;71.92;96286.41;10090097;29;20052;-76
2023/03/26 22:07:46;;;;;;;15.25;9.45;;;;;;;7.67;71.66;96277.25;10090229;29;20048;-76
2023/03/26 22:13:07;;;;;;;16.02;10.60;;;;;;;7.59;71.93;96279.59;10089653;29;20049;-76
2023/03/26 22:18:28;;;;;;;19.85;11.15;;;;;;;7.63;72.55;96275.00;10089924;29;20071;-77
2023/03/26 22:23:53;;;;;;;15.23;10.18;;;;;;;7.49;72.78;96276.97;10076828;29;20089;-76
2023/03/26 22:29:14;;;;;;;12.43;9.05;;;;;;;7.45;72.20;96277.47;10076690;29;20064;-76
2023/03/26 22:34:36;;;;;;;12.10;8.55;;;;;;;7.52;73.00;96267.41;10077848;29;20060;-76
2023/03/26 22:39:58;;;;;;;13.32;6.63;;;;;;;7.62;73.05;96231.16;10063237;29;20048;-77
2023/03/26 22:45:19;;;;;;;9.85;5.55;;;;;;;7.55;72.71;96243.28;10075265;29;20053;-76
2023/03/26 22:50:40;;;;;;;11.38;5.55;;;;;;;7.57;73.14;96252.44;10075674;29;20408;-76
2023/03/26 22:56:01;;;;;;;7.75;4.10;;;;;;;7.50;72.99;96256.19;10075458;29;20056;-76
2023/03/26 23:01:23;;;;;;;7.78;4.78;;;;;;;7.42;73.10;96253.69;10075663;29;20049;-77
2023/03/26 23:06:44;;;;;;;8.82;5.18;;;;;;;7.36;73.30;96274.84;10076114;29;20053;-76
2023/03/26 23:12:07;;;;;;;7.13;4.25;;;;;;;7.33;74.00;96282.31;10075285;29;20053;-77
2023/03/26 23:17:28;;;;;;;6.38;4.70;;;;;;;7.34;73.37;96297.69;10075336;29;20453;-76
2023/03/26 23:22:49;;;;;;;6.53;4.05;;;;;;;7.34;73.84;96299.72;10055068;29;20048;-76
2023/03/26 23:28:10;;;;;;;7.68;4.65;;;;;;;7.42;73.83;96319.59;10049278;29;20397;-77
2023/03/26 23:33:34;;;;;;;8.40;4.85;;;;;;;7.52;73.93;96325.72;10049916;29;20106;-76
2023/03/26 23:38:55;;;;;;;6.35;4.57;;;;;;;7.64;73.57;96337.53;10049736;29;20442;-77
2023/03/26 23:44:16;;;;;;;7.40;4.75;;;;;;;7.74;73.59;96332.53;10050082;29;20069;-77
2023/03/26 23:49:37;;;;;;;7.25;4.68;;;;;;;7.81;73.23;96325.25;10050208;29;20049;-77
2023/03/26 23:54:58;;;;;;;7.45;4.60;;;;;;;7.86;73.17;96310.25;10055780;29;20477;-76
